createdAt,value
2018-02-10T00:00:38.252Z,82.20
2018-02-10T00:03:05.660Z,81.54
2018-02-10T00:05:33.074Z,81.67
2018-02-10T00:08:00.478Z,81.90
2018-02-10T00:10:28.018Z,82.59
2018-02-10T00:12:55.437Z,82.79
2018-02-10T00:17:56.801Z,82.12
2018-02-10T00:20:24.212Z,82.65
2018-02-10T00:22:51.633Z,83.29
2018-02-10T00:25:19.057Z,83.42
2018-02-10T00:27:46.484Z,84.90
2018-02-10T00:30:14.258Z,83.12
2018-02-10T00:32:41.762Z,83.43
2018-02-10T00:35:09.160Z,83.78
2018-02-10T00:37:36.571Z,84.07
2018-02-10T00:40:03.998Z,84.17
2018-02-10T00:42:31.425Z,84.21
2018-02-10T00:44:58.849Z,84.54
2018-02-10T00:47:26.284Z,84.38
2018-02-10T00:49:53.701Z,84.29
2018-02-10T00:52:21.141Z,84.66
2018-02-10T00:54:49.066Z,84.60
2018-02-10T00:57:16.474Z,84.61
2018-02-10T00:59:43.877Z,84.47
2018-02-10T01:02:11.298Z,84.44
2018-02-10T01:04:38.721Z,84.34
2018-02-10T01:07:06.158Z,84.92
2018-02-10T01:09:33.566Z,84.85
2018-02-10T01:12:01.002Z,84.03
2018-02-10T01:14:28.474Z,83.58
2018-02-10T01:16:55.892Z,83.70
2018-02-10T01:19:23.310Z,83.84
2018-02-10T01:21:50.744Z,83.76
2018-02-10T01:24:18.153Z,83.69
2018-02-10T01:26:45.604Z,83.26
2018-02-10T01:29:13.085Z,83.74
2018-02-10T01:31:40.530Z,83.80
2018-02-10T01:34:07.969Z,84.18
2018-02-10T01:36:35.493Z,84.46
2018-02-10T01:39:02.918Z,85.07
2018-02-10T01:41:30.414Z,85.06
2018-02-10T01:43:57.824Z,84.74
2018-02-10T01:46:25.250Z,85.02
2018-02-10T01:48:52.660Z,85.01
2018-02-10T01:51:20.069Z,85.10
2018-02-10T01:53:47.933Z,85.65
2018-02-10T01:56:15.348Z,85.21
2018-02-10T01:58:42.800Z,84.80
2018-02-10T02:01:10.212Z,84.74
2018-02-10T02:03:37.628Z,84.96
2018-02-10T02:06:05.086Z,85.34
2018-02-10T02:08:32.507Z,85.04
2018-02-10T02:10:59.929Z,84.87
2018-02-10T02:13:27.363Z,84.80
2018-02-10T02:15:54.770Z,84.71
2018-02-10T02:18:22.229Z,84.70
2018-02-10T02:20:49.636Z,84.72
2018-02-10T02:23:17.056Z,83.92
2018-02-10T02:25:44.494Z,84.53
2018-02-10T02:28:11.908Z,84.55
2018-02-10T02:30:39.365Z,84.53
2018-02-10T02:33:06.784Z,84.59
2018-02-10T02:35:34.185Z,84.52
2018-02-10T02:38:01.600Z,84.24
2018-02-10T02:40:29.051Z,85.35
2018-02-10T02:42:56.502Z,85.94
2018-02-10T02:45:23.939Z,86.02
2018-02-10T02:47:51.346Z,85.96
2018-02-10T02:50:18.766Z,86.19
2018-02-10T02:52:46.209Z,86.00
2018-02-10T02:55:13.628Z,86.18
2018-02-10T02:57:41.092Z,86.02
2018-02-10T03:00:08.517Z,85.42
2018-02-10T03:02:35.934Z,85.11
2018-02-10T03:05:03.368Z,84.50
2018-02-10T03:07:30.773Z,84.35
2018-02-10T03:09:58.188Z,84.68
2018-02-10T03:12:25.742Z,85.51
2018-02-10T03:14:53.185Z,85.80
2018-02-10T03:17:20.613Z,85.79
2018-02-10T03:19:48.034Z,85.64
2018-02-10T03:22:15.461Z,85.45
2018-02-10T03:24:42.930Z,85.31
2018-02-10T03:27:10.341Z,85.30
2018-02-10T03:29:37.780Z,85.50
2018-02-10T03:32:05.193Z,85.12
2018-02-10T03:34:32.624Z,84.96
2018-02-10T03:37:00.035Z,84.78
2018-02-10T03:39:27.444Z,84.33
2018-02-10T03:41:54.938Z,84.28
2018-02-10T03:44:22.909Z,84.47
2018-02-10T03:46:50.345Z,84.67
2018-02-10T03:49:17.809Z,85.07
2018-02-10T03:51:45.320Z,85.17
2018-02-10T03:54:12.725Z,85.49
2018-02-10T03:56:40.153Z,85.46
2018-02-10T03:59:07.560Z,85.40
2018-02-10T04:01:34.973Z,85.54
2018-02-10T04:04:02.415Z,85.58
2018-02-10T04:06:29.829Z,85.47
2018-02-10T04:08:57.245Z,84.90
2018-02-10T04:11:24.661Z,84.83
2018-02-10T04:13:52.069Z,84.72
2018-02-10T04:16:19.497Z,84.58
2018-02-10T04:18:46.912Z,84.07
2018-02-10T04:21:14.332Z,83.82
2018-02-10T04:23:41.752Z,84.01
2018-02-10T04:26:09.193Z,84.37
2018-02-10T04:28:36.623Z,84.31
2018-02-10T04:31:04.082Z,84.53
2018-02-10T04:33:31.498Z,84.62
2018-02-10T04:35:58.940Z,84.78
2018-02-10T04:38:26.390Z,84.80
2018-02-10T04:40:54.281Z,84.76
2018-02-10T04:43:21.732Z,84.75
2018-02-10T04:45:49.187Z,84.98
2018-02-10T04:48:16.602Z,85.08
2018-02-10T04:50:44.016Z,85.18
2018-02-10T04:53:11.437Z,85.30
2018-02-10T04:55:38.954Z,85.51
2018-02-10T04:58:06.383Z,85.43
2018-02-10T05:00:33.790Z,85.11
2018-02-10T05:03:01.238Z,84.63
2018-02-10T05:05:28.653Z,84.33
2018-02-10T05:07:56.088Z,84.14
2018-02-10T05:10:23.491Z,83.91
2018-02-10T05:12:50.917Z,83.37
2018-02-10T05:15:18.338Z,83.57
2018-02-10T05:17:45.761Z,83.66
2018-02-10T05:20:13.168Z,84.20
2018-02-10T05:22:40.626Z,84.05
2018-02-10T05:25:07.998Z,83.61
2018-02-10T05:27:35.488Z,83.67
2018-02-10T05:30:02.951Z,84.06
2018-02-10T05:32:30.368Z,84.37
2018-02-10T05:34:57.789Z,84.37
2018-02-10T05:37:25.639Z,85.00
2018-02-10T05:39:53.051Z,84.61
2018-02-10T05:42:20.477Z,84.25
2018-02-10T05:44:47.978Z,83.78
2018-02-10T05:47:15.429Z,83.63
2018-02-10T05:49:42.890Z,84.08
2018-02-10T05:52:10.320Z,84.67
2018-02-10T05:54:37.727Z,84.58
2018-02-10T05:57:05.163Z,84.79
2018-02-10T05:59:32.553Z,85.19
2018-02-10T06:02:00.067Z,85.36
2018-02-10T06:04:27.488Z,85.17
2018-02-10T06:06:54.909Z,84.38
2018-02-10T06:09:22.373Z,83.94
2018-02-10T06:11:49.786Z,83.75
2018-02-10T06:14:17.222Z,84.52
2018-02-10T06:16:44.668Z,85.29
2018-02-10T06:19:12.088Z,85.77
2018-02-10T06:21:39.499Z,86.26
2018-02-10T06:24:06.938Z,86.53
2018-02-10T06:26:34.364Z,87.02
2018-02-10T06:29:01.777Z,87.08
2018-02-10T06:31:29.234Z,86.46
2018-02-10T06:33:57.258Z,85.79
2018-02-10T06:36:24.654Z,85.65
2018-02-10T06:38:52.073Z,85.94
2018-02-10T06:41:19.484Z,86.08
2018-02-10T06:43:46.957Z,86.11
2018-02-10T06:46:14.384Z,85.62
2018-02-10T06:48:41.839Z,85.22
2018-02-10T06:51:09.288Z,84.54
2018-02-10T06:53:36.702Z,84.95
2018-02-10T06:56:04.129Z,85.29
2018-02-10T06:58:31.549Z,85.24
2018-02-10T07:00:58.965Z,84.99
2018-02-10T07:03:26.384Z,84.28
2018-02-10T07:05:53.869Z,83.93
2018-02-10T07:08:21.297Z,84.09
2018-02-10T07:10:48.721Z,84.53
2018-02-10T07:13:16.155Z,84.74
2018-02-10T07:15:43.584Z,85.24
2018-02-10T07:18:11.015Z,84.81
2018-02-10T07:20:38.505Z,85.18
2018-02-10T07:23:05.927Z,84.61
2018-02-10T07:25:33.353Z,84.80
2018-02-10T07:28:00.761Z,83.19
2018-02-10T07:30:28.787Z,82.37
2018-02-10T07:32:56.201Z,82.05
2018-02-10T07:35:23.623Z,82.27
2018-02-10T07:37:51.034Z,81.51
2018-02-10T07:40:18.468Z,80.63
2018-02-10T07:42:45.909Z,80.74
2018-02-10T07:45:13.334Z,80.56
2018-02-10T07:47:40.748Z,80.01
2018-02-10T07:50:08.249Z,80.05
2018-02-10T07:52:35.664Z,79.64
2018-02-10T07:55:03.090Z,79.82
2018-02-10T07:57:30.506Z,79.63
2018-02-10T07:59:57.929Z,78.40
2018-02-10T08:02:25.357Z,78.37
2018-02-10T08:04:52.830Z,77.79
2018-02-10T08:07:20.249Z,78.44
2018-02-10T08:09:47.702Z,77.94
2018-02-10T08:12:15.073Z,77.99
2018-02-10T08:14:42.510Z,77.63
2018-02-10T08:17:09.912Z,78.16
2018-02-10T08:19:37.351Z,78.50
2018-02-10T08:22:04.777Z,78.97
2018-02-10T08:24:32.203Z,79.31
2018-02-10T08:27:00.556Z,78.02
2018-02-10T08:29:27.973Z,78.14
2018-02-10T08:31:55.428Z,77.98
2018-02-10T08:34:22.856Z,78.37
2018-02-10T08:36:50.291Z,78.31
2018-02-10T08:39:17.702Z,78.06
2018-02-10T08:41:45.125Z,78.47
2018-02-10T08:44:12.549Z,78.43
2018-02-10T08:46:40.004Z,78.92
2018-02-10T08:49:07.465Z,78.05
2018-02-10T08:51:34.965Z,77.55
2018-02-10T08:54:02.396Z,77.16
2018-02-10T08:56:29.811Z,76.69
2018-02-10T08:58:57.214Z,77.52
2018-02-10T09:01:24.638Z,77.76
2018-02-10T09:03:52.061Z,77.03
2018-02-10T09:06:19.468Z,76.60
2018-02-10T09:08:46.909Z,77.10
2018-02-10T09:11:14.332Z,77.24
2018-02-10T09:13:41.756Z,77.22
2018-02-10T09:16:09.209Z,76.43
2018-02-10T09:18:36.617Z,76.58
2018-02-10T09:21:04.052Z,76.18
2018-02-10T09:23:32.449Z,75.97
2018-02-10T09:25:59.861Z,75.97
2018-02-10T09:28:27.277Z,76.36
2018-02-10T09:30:54.688Z,75.83
2018-02-10T09:33:22.105Z,75.44
2018-02-10T09:35:49.506Z,75.64
2018-02-10T09:38:16.929Z,75.39
2018-02-10T09:40:44.357Z,75.54
2018-02-10T09:43:11.803Z,74.58
2018-02-10T09:45:39.217Z,74.76
2018-02-10T09:48:06.632Z,74.33
2018-02-10T09:50:34.049Z,73.86
2018-02-10T09:53:01.490Z,72.69
2018-02-10T09:55:28.907Z,72.30
2018-02-10T09:57:56.362Z,72.40
2018-02-10T10:00:23.778Z,72.19
2018-02-10T10:02:51.251Z,72.56
2018-02-10T10:05:18.644Z,72.78
2018-02-10T10:07:46.070Z,72.49
2018-02-10T10:10:13.473Z,72.83
2018-02-10T10:12:40.894Z,72.81
2018-02-10T10:15:08.312Z,72.87
2018-02-10T10:17:35.731Z,72.75
2018-02-10T10:20:03.145Z,71.94
2018-02-10T10:22:30.569Z,71.24
2018-02-10T10:24:57.985Z,71.73
2018-02-10T10:27:25.399Z,71.09
2018-02-10T10:29:52.874Z,71.60
2018-02-10T10:32:20.314Z,71.40
2018-02-10T10:34:47.762Z,71.20
2018-02-10T10:37:15.253Z,72.35
2018-02-10T10:39:42.657Z,72.52
2018-02-10T10:42:10.073Z,70.82
2018-02-10T10:44:37.493Z,71.28
2018-02-10T10:47:05.428Z,71.84
2018-02-10T10:49:32.881Z,72.13
2018-02-10T10:52:00.313Z,71.94
2018-02-10T10:54:27.768Z,70.69
2018-02-10T10:56:55.186Z,71.47
2018-02-10T10:59:22.632Z,71.95
2018-02-10T11:01:50.041Z,72.34
2018-02-10T11:04:17.462Z,72.59
2018-02-10T11:06:44.885Z,71.90
2018-02-10T11:09:12.326Z,71.51
2018-02-10T11:11:39.734Z,71.48
2018-02-10T11:14:07.153Z,72.92
2018-02-10T11:16:34.582Z,72.29
2018-02-10T11:19:01.997Z,73.18
2018-02-10T11:21:29.430Z,73.04
2018-02-10T11:23:56.881Z,73.81
2018-02-10T11:26:24.321Z,72.64
2018-02-10T11:28:51.761Z,73.20
2018-02-10T11:31:19.172Z,72.82
2018-02-10T11:33:46.590Z,73.24
2018-02-10T11:36:14.017Z,73.21
2018-02-10T11:38:41.541Z,73.10
2018-02-10T11:41:08.942Z,73.82
2018-02-10T11:43:36.370Z,73.72
2018-02-10T11:46:03.779Z,74.74
2018-02-10T11:48:31.216Z,73.87
2018-02-10T11:50:58.609Z,74.12
2018-02-10T11:53:26.037Z,73.73
2018-02-10T11:55:53.478Z,73.00
2018-02-10T11:58:20.935Z,71.88
2018-02-10T12:00:48.390Z,72.35
2018-02-10T12:03:15.800Z,71.53
2018-02-10T12:05:43.217Z,71.19
2018-02-10T12:08:10.630Z,71.76
2018-02-10T12:10:38.678Z,71.14
2018-02-10T12:13:06.088Z,72.05
2018-02-10T12:15:33.520Z,72.36
2018-02-10T12:18:00.984Z,72.23
2018-02-10T12:20:28.401Z,71.52
2018-02-10T12:22:55.825Z,71.85
2018-02-10T12:25:23.310Z,71.22
2018-02-10T12:27:50.772Z,71.88
2018-02-10T12:30:18.215Z,72.15
2018-02-10T12:32:45.656Z,71.84
2018-02-10T12:35:13.086Z,71.63
2018-02-10T12:37:40.538Z,71.57
2018-02-10T12:40:07.981Z,71.06
2018-02-10T12:42:35.493Z,70.92
2018-02-10T12:45:02.969Z,71.72
2018-02-10T12:47:36.046Z,72.86
2018-02-10T12:50:03.495Z,72.99
2018-02-10T12:52:30.906Z,73.52
2018-02-10T12:54:58.403Z,73.72
2018-02-10T12:57:25.906Z,74.62
2018-02-10T12:59:53.317Z,74.92
2018-02-10T13:02:20.725Z,75.16
2018-02-10T13:04:48.137Z,75.21
2018-02-10T13:07:15.572Z,75.20
2018-02-10T13:09:42.999Z,74.99
2018-02-10T13:12:11.294Z,75.37
2018-02-10T13:14:38.711Z,76.17
2018-02-10T13:17:06.125Z,76.55
2018-02-10T13:19:33.584Z,77.60
2018-02-10T13:22:01.000Z,78.24
2018-02-10T13:24:28.410Z,78.49
2018-02-10T13:26:55.848Z,78.76
2018-02-10T13:29:23.282Z,79.14
2018-02-10T13:31:50.721Z,79.37
2018-02-10T13:34:18.142Z,79.29
2018-02-10T13:36:45.567Z,79.26
2018-02-10T13:39:12.986Z,79.88
2018-02-10T13:41:40.401Z,79.50
2018-02-10T13:44:07.819Z,79.51
2018-02-10T13:46:35.282Z,79.46
2018-02-10T13:49:02.746Z,79.36
2018-02-10T13:51:30.199Z,79.46
2018-02-10T13:53:57.607Z,79.23
2018-02-10T13:56:25.033Z,78.59
2018-02-10T13:58:52.455Z,78.62
2018-02-10T14:01:19.878Z,78.43
2018-02-10T14:03:47.290Z,78.86
2018-02-10T14:06:14.720Z,78.60
2018-02-10T14:08:42.217Z,78.09
2018-02-10T14:11:09.637Z,77.92
2018-02-10T14:13:37.102Z,78.18
2018-02-10T14:16:04.509Z,77.47
2018-02-10T14:18:31.937Z,77.96
2018-02-10T14:20:59.365Z,77.31
2018-02-10T14:23:26.837Z,77.07
2018-02-10T14:25:54.252Z,77.70
2018-02-10T14:28:21.669Z,77.04
2018-02-10T14:30:49.095Z,76.46
2018-02-10T14:33:16.515Z,77.20
2018-02-10T14:35:44.915Z,77.49
2018-02-10T14:38:12.337Z,77.29
2018-02-10T14:40:39.745Z,77.71
2018-02-10T14:43:07.186Z,77.75
2018-02-10T14:45:34.601Z,77.21
2018-02-10T14:48:02.034Z,77.38
2018-02-10T14:50:29.454Z,77.68
2018-02-10T14:52:56.881Z,77.13
2018-02-10T14:55:24.303Z,77.44
2018-02-10T14:57:51.728Z,77.05
2018-02-10T15:00:19.197Z,77.18
2018-02-10T15:02:46.627Z,75.98
2018-02-10T15:05:14.087Z,76.69
2018-02-10T15:07:41.591Z,77.12
2018-02-10T15:10:09.036Z,76.56
2018-02-10T15:12:36.566Z,76.31
2018-02-10T15:15:03.986Z,76.91
2018-02-10T15:17:31.490Z,76.72
2018-02-10T15:19:59.029Z,76.35
2018-02-10T15:22:26.445Z,77.03
2018-02-10T15:24:53.882Z,76.86
2018-02-10T15:27:21.334Z,76.25
2018-02-10T15:30:00.701Z,76.55
2018-02-10T15:32:40.065Z,76.93
2018-02-10T15:35:07.518Z,75.97
2018-02-10T15:37:34.935Z,76.12
2018-02-10T15:40:02.351Z,77.09
2018-02-10T15:42:29.753Z,76.40
2018-02-10T15:44:57.239Z,77.10
2018-02-10T15:47:24.663Z,76.25
2018-02-10T15:49:52.093Z,75.96
2018-02-10T15:52:19.567Z,75.97
2018-02-10T15:54:47.067Z,76.63
2018-02-10T15:57:14.486Z,76.49
2018-02-10T15:59:41.913Z,75.72
2018-02-10T16:02:09.324Z,75.99
2018-02-10T16:04:36.741Z,75.22
2018-02-10T16:07:04.205Z,75.42
2018-02-10T16:09:31.683Z,76.07
2018-02-10T16:11:59.129Z,75.46
2018-02-10T16:14:26.545Z,75.68
2018-02-10T16:16:53.962Z,75.86
2018-02-10T16:19:21.371Z,75.12
2018-02-10T16:21:49.616Z,75.71
2018-02-10T16:24:17.074Z,75.61
2018-02-10T16:26:44.510Z,75.70
2018-02-10T16:29:11.934Z,76.00
2018-02-10T16:31:39.341Z,75.43
2018-02-10T16:34:06.769Z,76.04
2018-02-10T16:36:34.185Z,76.06
2018-02-10T16:39:01.624Z,74.56
2018-02-10T16:41:29.026Z,74.60
2018-02-10T16:43:56.470Z,75.31
2018-02-10T16:46:23.890Z,75.97
2018-02-10T16:48:51.296Z,75.70
2018-02-10T16:51:18.730Z,76.64
2018-02-10T16:53:46.139Z,75.70
2018-02-10T16:56:13.633Z,76.01
2018-02-10T16:58:41.036Z,77.18
2018-02-10T17:01:08.465Z,75.44
2018-02-10T17:03:35.877Z,75.83
2018-02-10T17:06:03.307Z,76.04
2018-02-10T17:08:30.725Z,76.21
2018-02-10T17:10:58.141Z,75.16
2018-02-10T17:13:25.581Z,75.40
2018-02-10T17:15:53.025Z,74.86
2018-02-10T17:18:20.434Z,74.85
2018-02-10T17:20:47.870Z,74.57
2018-02-10T17:23:15.285Z,74.73
2018-02-10T17:25:42.744Z,73.50
2018-02-10T17:28:10.240Z,74.74
2018-02-10T17:30:37.657Z,74.37
2018-02-10T17:33:05.056Z,73.61
2018-02-10T17:35:32.521Z,74.72
2018-02-10T17:37:59.941Z,74.63
2018-02-10T17:40:27.379Z,73.72
2018-02-10T17:42:54.878Z,74.57
2018-02-10T17:45:23.108Z,75.00
2018-02-10T17:47:50.542Z,75.27
2018-02-10T17:50:17.943Z,75.30
2018-02-10T17:52:45.364Z,75.83
2018-02-10T17:55:12.863Z,75.31
2018-02-10T17:57:40.309Z,75.24
2018-02-10T18:00:07.718Z,76.49
2018-02-10T18:02:35.133Z,74.92
2018-02-10T18:05:02.544Z,75.33
2018-02-10T18:07:29.966Z,75.87
2018-02-10T18:09:57.378Z,75.57
2018-02-10T18:12:24.846Z,75.61
2018-02-10T18:14:52.244Z,75.01
2018-02-10T18:17:19.758Z,74.79
2018-02-10T18:19:47.168Z,75.12
2018-02-10T18:22:14.590Z,76.09
2018-02-10T18:24:42.005Z,75.37
2018-02-10T18:27:09.432Z,75.50
2018-02-10T18:29:36.936Z,74.94
2018-02-10T18:32:04.371Z,75.02
2018-02-10T18:34:31.816Z,75.82
2018-02-10T18:36:59.225Z,75.30
2018-02-10T18:39:26.651Z,74.70
2018-02-10T18:41:54.377Z,74.55
2018-02-10T18:44:21.875Z,74.51
2018-02-10T18:46:49.326Z,74.73
2018-02-10T18:49:16.752Z,75.46
2018-02-10T18:51:44.170Z,74.67
2018-02-10T18:54:11.577Z,74.78
2018-02-10T18:56:39.009Z,75.80
2018-02-10T18:59:06.416Z,74.77
2018-02-10T19:01:33.847Z,75.48
2018-02-10T19:04:01.369Z,77.10
2018-02-10T19:06:28.786Z,76.03
2018-02-10T19:08:56.235Z,76.35
2018-02-10T19:11:23.680Z,76.85
2018-02-10T19:13:51.109Z,76.45
2018-02-10T19:16:18.521Z,76.64
2018-02-10T19:18:45.945Z,76.90
2018-02-10T19:21:13.361Z,76.21
2018-02-10T19:23:40.782Z,75.77
2018-02-10T19:26:08.300Z,75.32
2018-02-10T19:28:35.711Z,76.14
2018-02-10T19:31:03.146Z,74.56
2018-02-10T19:33:30.574Z,75.03
2018-02-10T19:35:57.971Z,75.32
2018-02-10T19:38:25.834Z,74.97
2018-02-10T19:40:53.256Z,75.10
2018-02-10T19:43:20.684Z,75.03
2018-02-10T19:45:48.129Z,75.38
2018-02-10T19:48:15.572Z,75.76
2018-02-10T19:50:42.983Z,74.91
2018-02-10T19:53:10.393Z,75.03
2018-02-10T19:55:37.812Z,75.59
2018-02-10T19:58:05.232Z,75.70
2018-02-10T20:00:32.644Z,75.89
2018-02-10T20:03:00.086Z,75.93
2018-02-10T20:05:27.497Z,75.59
2018-02-10T20:07:54.959Z,75.75
2018-02-10T20:10:22.429Z,76.01
2018-02-10T20:12:49.848Z,76.39
2018-02-10T20:15:17.259Z,76.80
2018-02-10T20:17:44.678Z,76.60
2018-02-10T20:20:12.092Z,76.07
2018-02-10T20:37:05.302Z,76.44
2018-02-10T20:56:35.374Z,75.68
2018-02-10T21:16:05.413Z,75.75
2018-02-10T21:18:33.818Z,76.42
2018-02-10T21:21:01.230Z,75.43
2018-02-10T21:23:28.722Z,75.08
2018-02-10T21:25:56.142Z,76.08
2018-02-10T21:28:23.571Z,75.75
2018-02-10T21:30:51.002Z,75.83
2018-02-10T21:33:18.405Z,75.85
2018-02-10T21:35:45.820Z,76.15
2018-02-10T21:38:13.249Z,76.51
2018-02-10T21:40:40.683Z,76.80
2018-02-10T21:43:08.101Z,77.13
2018-02-10T21:45:35.510Z,78.03
2018-02-10T21:48:02.925Z,77.79
2018-02-10T21:50:30.337Z,78.35
2018-02-10T21:52:57.753Z,78.51
2018-02-10T21:55:25.223Z,79.25
2018-02-10T21:57:52.662Z,78.89
2018-02-10T22:02:41.130Z,79.15
2018-02-10T22:05:08.541Z,79.51
2018-02-10T22:07:35.960Z,80.10
2018-02-10T22:10:03.392Z,80.27
2018-02-10T22:12:30.807Z,80.30
2018-02-10T22:14:58.218Z,80.16
2018-02-10T22:17:25.633Z,80.04
2018-02-10T22:19:53.049Z,80.54
2018-02-10T22:22:20.474Z,80.26
2018-02-10T22:24:47.882Z,80.82
2018-02-10T22:27:15.307Z,80.80
2018-02-10T22:29:42.784Z,80.31
2018-02-10T22:32:10.208Z,80.52
2018-02-10T22:34:37.659Z,79.69
2018-02-10T22:37:05.114Z,80.37
2018-02-10T22:39:32.521Z,80.02
2018-02-10T22:41:59.933Z,80.23
2018-02-10T22:44:27.358Z,79.47
2018-02-10T22:46:54.787Z,79.73
2018-02-10T22:49:22.205Z,79.59
2018-02-10T22:51:49.625Z,79.88
2018-02-10T22:54:17.017Z,79.63
2018-02-10T22:56:44.442Z,80.25
2018-02-10T22:59:11.930Z,79.62
2018-02-10T23:01:39.298Z,79.67
2018-02-10T23:04:06.707Z,78.69
2018-02-10T23:06:34.117Z,79.06
2018-02-10T23:09:01.992Z,79.33
2018-02-10T23:11:29.431Z,79.42
2018-02-10T23:13:56.838Z,78.99
2018-02-10T23:16:24.253Z,79.34
2018-02-10T23:18:51.678Z,78.50
2018-02-10T23:21:19.078Z,79.56
2018-02-10T23:23:46.525Z,79.11
2018-02-10T23:26:13.933Z,79.61
2018-02-10T23:28:41.346Z,79.75
2018-02-10T23:31:08.764Z,79.46
2018-02-10T23:33:36.228Z,80.32
2018-02-10T23:36:03.637Z,79.31
2018-02-10T23:38:31.048Z,79.35
2018-02-10T23:40:58.485Z,79.55
2018-02-10T23:43:25.933Z,79.57
2018-02-10T23:45:53.348Z,78.92
2018-02-10T23:48:20.765Z,79.20
2018-02-10T23:50:48.161Z,79.53
2018-02-10T23:53:15.586Z,79.19
2018-02-10T23:55:42.984Z,79.26
2018-02-10T23:58:10.415Z,79.71
